sensor_id;sensor_type;location;lat;lon;timestamp;P1;durP1;ratioP1;P2;durP2;ratioP2
26177;SDS011;13924;47.670;10.310;2023-03-03T00:00:40;125.0;;;40.7;;
26177;SDS011;13924;47.670;10.310;2023-03-03T00:15:36;128.7;;;40.2;;
26177;SDS011;13924;47.670;10.310;2023-03-03T00:30:37;119.1;;;37.4;;
26177;SDS011;13924;47.670;10.310;2023-03-03T00:45:47;126.4;;;38.9;;
26177;SDS011;13924;47.670;10.310;2023-03-03T01:00:38;129.7;;;39.8;;
26177;SDS011;13924;47.670;10.310;2023-03-03T01:15:39;123.2;;;37.6;;
26177;SDS011;13924;47.670;10.310;2023-03-03T01:30:41;117.7;;;37.0;;
26177;SDS011;13924;47.670;10.310;2023-03-03T01:45:43;108.4;;;35.7;;
26177;SDS011;13924;47.670;10.310;2023-03-03T02:00:41;108.9;;;32.1;;
26177;SDS011;13924;47.670;10.310;2023-03-03T02:01:29;106.2;;;35.4;;
26177;SDS011;13924;47.670;10.310;2023-03-03T02:15:42;102.8;;;31.2;;
26177;SDS011;13924;47.670;10.310;2023-03-03T02:30:53;105.0;;;33.7;;
26177;SDS011;13924;47.670;10.310;2023-03-03T02:45:50;85.9;;;30.6;;
26177;SDS011;13924;47.670;10.310;2023-03-03T03:00:51;85.2;;;29.1;;
26177;SDS011;13924;47.670;10.310;2023-03-03T03:15:51;88.9;;;30.3;;
26177;SDS011;13924;47.670;10.310;2023-03-03T03:30:50;82.6;;;28.9;;
26177;SDS011;13924;47.670;10.310;2023-03-03T03:45:49;88.4;;;30.2;;
26177;SDS011;13924;47.670;10.310;2023-03-03T04:00:52;92.2;;;28.9;;
26177;SDS011;13924;47.670;10.310;2023-03-03T04:15:51;88.9;;;28.6;;
26177;SDS011;13924;47.670;10.310;2023-03-03T04:30:52;78.8;;;26.5;;
26177;SDS011;13924;47.670;10.310;2023-03-03T04:45:52;87.3;;;29.7;;
26177;SDS011;13924;47.670;10.310;2023-03-03T05:00:55;64.2;;;24.3;;
26177;SDS011;13924;47.670;10.310;2023-03-03T05:15:52;52.2;;;22.4;;
26177;SDS011;13924;47.670;10.310;2023-03-03T05:30:57;68.2;;;25.0;;
26177;SDS011;13924;47.670;10.310;2023-03-03T05:45:53;59.8;;;21.8;;
26177;SDS011;13924;47.670;10.310;2023-03-03T05:52:52;59.2;;;22.3;;
26177;SDS011;13924;47.670;10.310;2023-03-03T06:07:52;53.3;;;20.1;;
26177;SDS011;13924;47.670;10.310;2023-03-03T06:22:51;46.1;;;19.2;;
26177;SDS011;13924;47.670;10.310;2023-03-03T06:37:52;41.8;;;19.3;;
26177;SDS011;13924;47.670;10.310;2023-03-03T06:52:58;51.6;;;20.3;;
26177;SDS011;13924;47.670;10.310;2023-03-03T07:07:55;39.8;;;17.2;;
26177;SDS011;13924;47.670;10.310;2023-03-03T07:22:55;55.6;;;21.4;;
26177;SDS011;13924;47.670;10.310;2023-03-03T07:37:55;46.2;;;19.6;;
26177;SDS011;13924;47.670;10.310;2023-03-03T07:52:59;89.8;;;30.3;;
26177;SDS011;13924;47.670;10.310;2023-03-03T08:08:01;135.9;;;42.6;;
26177;SDS011;13924;47.670;10.310;2023-03-03T08:22:57;138.4;;;42.0;;
26177;SDS011;13924;47.670;10.310;2023-03-03T08:37:58;130.8;;;42.7;;
26177;SDS011;13924;47.670;10.310;2023-03-03T08:52:58;105.5;;;38.5;;
26177;SDS011;13924;47.670;10.310;2023-03-03T09:07:59;102.6;;;37.8;;
26177;SDS011;13924;47.670;10.310;2023-03-03T09:23:06;116.0;;;40.9;;
26177;SDS011;13924;47.670;10.310;2023-03-03T09:38:09;117.4;;;41.9;;
26177;SDS011;13924;47.670;10.310;2023-03-03T09:53:05;108.0;;;40.0;;
26177;SDS011;13924;47.670;10.310;2023-03-03T10:08:05;115.4;;;42.5;;
26177;SDS011;13924;47.670;10.310;2023-03-03T10:23:03;107.5;;;41.8;;
26177;SDS011;13924;47.670;10.310;2023-03-03T10:38:08;93.2;;;38.7;;
26177;SDS011;13924;47.670;10.310;2023-03-03T10:53:10;90.4;;;39.0;;
26177;SDS011;13924;47.670;10.310;2023-03-03T11:08:07;91.7;;;37.8;;
26177;SDS011;13924;47.670;10.310;2023-03-03T11:23:07;96.8;;;38.0;;
26177;SDS011;13924;47.670;10.310;2023-03-03T11:38:09;97.3;;;38.9;;
26177;SDS011;13924;47.670;10.310;2023-03-03T11:53:12;97.9;;;38.7;;
26177;SDS011;13924;47.670;10.310;2023-03-03T12:08:13;104.7;;;42.6;;
26177;SDS011;13924;47.670;10.310;2023-03-03T12:23:11;112.0;;;41.4;;
26177;SDS011;13924;47.670;10.310;2023-03-03T12:38:13;110.3;;;41.9;;
26177;SDS011;13924;47.670;10.310;2023-03-03T12:53:11;97.9;;;40.2;;
26177;SDS011;13924;47.670;10.310;2023-03-03T13:08:16;99.1;;;39.6;;
26177;SDS011;13924;47.670;10.310;2023-03-03T13:23:11;90.2;;;37.3;;
26177;SDS011;13924;47.670;10.310;2023-03-03T13:38:20;87.4;;;36.7;;
26177;SDS011;13924;47.670;10.310;2023-03-03T13:53:39;92.2;;;37.6;;
26177;SDS011;13924;47.670;10.310;2023-03-03T14:08:14;99.4;;;40.3;;
26177;SDS011;13924;47.670;10.310;2023-03-03T14:23:13;102.0;;;38.5;;
26177;SDS011;13924;47.670;10.310;2023-03-03T14:38:13;114.5;;;43.8;;
26177;SDS011;13924;47.670;10.310;2023-03-03T14:53:30;113.9;;;46.0;;
26177;SDS011;13924;47.670;10.310;2023-03-03T15:08:15;101.5;;;40.8;;
26177;SDS011;13924;47.670;10.310;2023-03-03T15:23:22;101.6;;;39.9;;
26177;SDS011;13924;47.670;10.310;2023-03-03T15:38:54;90.9;;;39.2;;
26177;SDS011;13924;47.670;10.310;2023-03-03T15:53:22;94.0;;;38.6;;
26177;SDS011;13924;47.670;10.310;2023-03-03T16:08:16;95.2;;;38.0;;
26177;SDS011;13924;47.670;10.310;2023-03-03T16:23:31;101.4;;;42.1;;
26177;SDS011;13924;47.670;10.310;2023-03-03T16:38:21;105.8;;;40.6;;
26177;SDS011;13924;47.670;10.310;2023-03-03T16:53:24;115.4;;;45.1;;
26177;SDS011;13924;47.670;10.310;2023-03-03T17:08:23;158.1;;;60.5;;
26177;SDS011;13924;47.670;10.310;2023-03-03T17:23:26;136.2;;;48.9;;
26177;SDS011;13924;47.670;10.310;2023-03-03T17:38:23;136.6;;;51.8;;
26177;SDS011;13924;47.670;10.310;2023-03-03T17:53:24;150.6;;;55.7;;
26177;SDS011;13924;47.670;10.310;2023-03-03T18:08:24;146.2;;;54.0;;
26177;SDS011;13924;47.670;10.310;2023-03-03T18:23:31;146.6;;;53.4;;
26177;SDS011;13924;47.670;10.310;2023-03-03T18:38:26;147.2;;;55.6;;
26177;SDS011;13924;47.670;10.310;2023-03-03T18:53:27;170.3;;;63.4;;
26177;SDS011;13924;47.670;10.310;2023-03-03T19:08:26;203.9;;;78.0;;
26177;SDS011;13924;47.670;10.310;2023-03-03T19:23:29;158.7;;;57.8;;
26177;SDS011;13924;47.670;10.310;2023-03-03T19:38:31;157.0;;;54.5;;
26177;SDS011;13924;47.670;10.310;2023-03-03T19:53:32;160.3;;;58.5;;
26177;SDS011;13924;47.670;10.310;2023-03-03T20:08:30;148.4;;;52.1;;
26177;SDS011;13924;47.670;10.310;2023-03-03T20:23:30;163.7;;;56.7;;
26177;SDS011;13924;47.670;10.310;2023-03-03T20:38:33;156.9;;;56.4;;
26177;SDS011;13924;47.670;10.310;2023-03-03T20:53:33;199.0;;;63.2;;
26177;SDS011;13924;47.670;10.310;2023-03-03T21:08:48;177.2;;;64.9;;
26177;SDS011;13924;47.670;10.310;2023-03-03T21:23:33;153.6;;;55.9;;
26177;SDS011;13924;47.670;10.310;2023-03-03T21:38:40;176.7;;;63.9;;
26177;SDS011;13924;47.670;10.310;2023-03-03T21:53:34;164.1;;;58.5;;
26177;SDS011;13924;47.670;10.310;2023-03-03T22:08:34;165.6;;;56.0;;
26177;SDS011;13924;47.670;10.310;2023-03-03T22:23:35;170.4;;;57.7;;
26177;SDS011;13924;47.670;10.310;2023-03-03T22:38:35;169.5;;;59.2;;
26177;SDS011;13924;47.670;10.310;2023-03-03T22:53:36;780.7;;;65.5;;
26177;SDS011;13924;47.670;10.310;2023-03-03T23:00:49;538.9;;;60.8;;
26177;SDS011;13924;47.670;10.310;2023-03-03T23:15:34;325.9;;;60.8;;
26177;SDS011;13924;47.670;10.310;2023-03-03T23:30:34;343.8;;;59.1;;
26177;SDS011;13924;47.670;10.310;2023-03-03T23:45:35;227.1;;;66.9;;
